Time;durP1;ratioP1;P1;durP2;ratioP2;P2;SDS_P1;SDS_P2;PMS_P1;PMS_P2;Temp;Humidity;BMP_temperature;BMP_pressure;BME280_temperature;BME280_humidity;BME280_pressure;Samples;Min_cycle;Max_cycle;Signal;HPM_P1;HPM_P2
2021/09/05 00:02:00;;;;;;;26.63;21.50;;;15.20;99.90;;;;;;5042938;28;20453;-60
2021/09/05 00:04:28;;;;;;;22.27;20.00;;;15.20;99.90;;;;;;5043421;28;20445;-63
2021/09/05 00:06:55;;;;;;;22.90;20.53;;;15.10;99.90;;;;;;5043376;28;20461;-63
2021/09/05 00:09:22;;;;;;;25.97;20.93;;;15.10;99.90;;;;;;5044290;28;20833;-63
2021/09/05 00:11:48;;;;;;;24.30;20.77;;;15.00;99.90;;;;;;5044690;28;20441;-62
2021/09/05 00:14:15;;;;;;;27.83;21.83;;;15.00;99.90;;;;;;5045153;28;20436;-64
2021/09/05 00:16:42;;;;;;;24.03;19.90;;;15.00;99.90;;;;;;5044354;28;20464;-63
2021/09/05 00:19:08;;;;;;;24.93;22.43;;;14.90;99.90;;;;;;5043179;28;20512;-63
2021/09/05 00:21:36;;;;;;;29.20;20.40;;;14.90;99.90;;;;;;5041945;28;20524;-65
2021/09/05 00:24:03;;;;;;;21.27;19.10;;;14.90;99.90;;;;;;5043133;28;20449;-65
2021/09/05 00:26:32;;;;;;;25.30;22.47;;;14.90;99.90;;;;;;5043925;28;20980;-65
2021/09/05 00:28:59;;;;;;;23.80;18.30;;;14.80;99.90;;;;;;5045007;28;20555;-64
2021/09/05 00:31:25;;;;;;;26.00;19.57;;;14.80;99.90;;;;;;5043690;28;20445;-63
2021/09/05 00:33:52;;;;;;;24.57;20.80;;;14.90;99.90;;;;;;5043320;28;20437;-64
2021/09/05 00:36:19;;;;;;;26.97;22.37;;;14.90;99.90;;;;;;5042648;28;20472;-64
2021/09/05 00:38:47;;;;;;;21.90;18.30;;;14.90;99.90;;;;;;5043413;28;20495;-65
2021/09/05 00:41:14;;;;;;;23.07;20.37;;;14.90;99.90;;;;;;5043589;28;20445;-64
2021/09/05 00:43:57;;;;;;;28.47;18.93;;;14.90;99.90;;;;;;5044342;28;20449;-64
2021/09/05 00:46:23;;;;;;;21.83;18.00;;;14.90;99.90;;;;;;5044335;28;20445;-64
2021/09/05 00:48:50;;;;;;;25.63;17.60;;;15.00;99.90;;;;;;5045418;28;20441;-63
2021/09/05 00:51:17;;;;;;;21.33;17.20;;;15.10;99.90;;;;;;5045278;28;20452;-64
2021/09/05 00:53:46;;;;;;;21.13;16.17;;;15.10;99.90;;;;;;5048538;28;20456;-63
2021/09/05 00:56:14;;;;;;;18.57;16.47;;;15.10;99.90;;;;;;5049321;28;20440;-64
2021/09/05 00:58:42;;;;;;;23.40;17.80;;;15.10;99.90;;;;;;5047771;28;20508;-63
2021/09/05 01:01:09;;;;;;;21.70;19.03;;;15.10;99.90;;;;;;5047031;28;20444;-63
2021/09/05 01:03:36;;;;;;;23.13;17.83;;;15.10;99.90;;;;;;5047615;28;20531;-64
2021/09/05 01:06:02;;;;;;;24.80;18.53;;;15.10;99.90;;;;;;5045980;28;21088;-63
2021/09/05 01:08:29;;;;;;;23.40;18.77;;;15.10;99.90;;;;;;5046549;28;21021;-64
2021/09/05 01:10:57;;;;;;;22.73;19.03;;;15.10;99.90;;;;;;5048178;28;20790;-64
2021/09/05 01:13:25;;;;;;;25.10;18.13;;;15.10;99.90;;;;;;5047761;28;20934;-65
2021/09/05 01:15:52;;;;;;;25.73;22.87;;;15.10;99.90;;;;;;5047092;28;20456;-64
2021/09/05 01:18:18;;;;;;;18.70;16.80;;;15.10;99.90;;;;;;5046825;28;20488;-63
2021/09/05 01:20:45;;;;;;;24.80;17.03;;;15.20;99.90;;;;;;5046165;28;20448;-64
2021/09/05 01:23:12;;;;;;;20.93;18.60;;;15.20;99.90;;;;;;5046056;28;20448;-64
2021/09/05 01:25:40;;;;;;;19.13;16.30;;;15.20;99.90;;;;;;5046899;28;20445;-64
2021/09/05 01:28:10;;;;;;;22.83;17.30;;;15.20;99.90;;;;;;5046759;28;20465;-64
2021/09/05 01:30:37;;;;;;;23.13;17.60;;;15.20;99.90;;;;;;5046658;28;20483;-64
2021/09/05 01:33:04;;;;;;;23.10;18.40;;;15.10;99.90;;;;;;5047050;28;20445;-63
2021/09/05 01:35:34;;;;;;;20.87;18.10;;;15.00;99.90;;;;;;5047941;28;20946;-64
2021/09/05 01:38:00;;;;;;;21.93;17.87;;;14.90;99.90;;;;;;5048107;28;20464;-63
2021/09/05 01:40:27;;;;;;;25.17;21.47;;;14.80;99.90;;;;;;5047679;28;20798;-63
2021/09/05 01:42:54;;;;;;;25.00;18.47;;;14.80;99.90;;;;;;5047933;28;20452;-63
2021/09/05 01:45:22;;;;;;;23.03;19.53;;;14.70;99.90;;;;;;5047457;28;20483;-64
2021/09/05 01:47:48;;;;;;;22.00;17.83;;;14.60;99.90;;;;;;5043793;28;20838;-64
2021/09/05 01:50:15;;;;;;;20.83;18.03;;;14.60;99.90;;;;;;5048788;28;20449;-64
2021/09/05 01:52:42;;;;;;;26.60;19.30;;;14.50;99.90;;;;;;5048902;28;20441;-64
2021/09/05 01:55:09;;;;;;;22.57;18.37;;;14.50;99.90;;;;;;5050098;28;20456;-62
2021/09/05 01:57:36;;;;;;;24.30;18.37;;;14.50;99.90;;;;;;5048124;28;20548;-64
2021/09/05 02:00:03;;;;;;;22.27;16.97;;;14.40;99.90;;;;;;5046696;28;21045;-63
2021/09/05 02:02:31;;;;;;;21.83;16.57;;;14.40;99.90;;;;;;5046383;28;20453;-64
2021/09/05 02:04:58;;;;;;;19.30;15.23;;;14.30;99.90;;;;;;5045266;28;20961;-63
2021/09/05 02:07:25;;;;;;;24.27;19.63;;;14.30;99.90;;;;;;5046471;28;20476;-64
2021/09/05 02:09:51;;;;;;;21.53;15.47;;;14.30;99.90;;;;;;5049032;28;20451;-63
2021/09/05 02:12:18;;;;;;;20.07;15.87;;;14.30;99.90;;;;;;5048323;28;20516;-63
2021/09/05 02:14:45;;;;;;;24.70;17.20;;;14.20;99.90;;;;;;5048455;28;20449;-64
2021/09/05 02:17:12;;;;;;;22.60;16.80;;;14.20;99.90;;;;;;5047005;28;20471;-63
2021/09/05 02:19:40;;;;;;;22.67;18.10;;;14.20;99.90;;;;;;5047281;28;20489;-63
2021/09/05 02:22:06;;;;;;;25.90;17.40;;;14.20;99.90;;;;;;5046196;28;20446;-64
2021/09/05 02:24:33;;;;;;;24.33;18.13;;;14.20;99.90;;;;;;5048020;28;20456;-64
2021/09/05 02:27:00;;;;;;;22.40;17.87;;;14.10;99.90;;;;;;5049282;28;20464;-63
2021/09/05 02:29:27;;;;;;;22.80;16.40;;;14.10;99.90;;;;;;5049514;28;20441;-62
2021/09/05 02:31:53;;;;;;;25.83;19.17;;;14.10;99.90;;;;;;5048073;28;20455;-64
2021/09/05 02:34:20;;;;;;;24.27;19.27;;;14.10;99.90;;;;;;5049230;28;20865;-63
2021/09/05 02:36:48;;;;;;;25.07;18.87;;;14.10;99.90;;;;;;5048677;28;20468;-63
2021/09/05 02:39:15;;;;;;;28.97;19.27;;;14.00;99.90;;;;;;5049427;28;20480;-63
2021/09/05 02:41:42;;;;;;;25.63;18.53;;;14.00;99.90;;;;;;5048706;28;20449;-64
2021/09/05 02:44:09;;;;;;;31.83;20.00;;;14.00;99.90;;;;;;5049731;28;20449;-62
2021/09/05 02:46:35;;;;;;;23.10;17.63;;;14.10;99.90;;;;;;5048165;28;20449;-63
2021/09/05 02:49:02;;;;;;;32.13;19.27;;;14.00;99.90;;;;;;5049461;28;20447;-64
2021/09/05 02:51:30;;;;;;;25.20;19.40;;;14.00;99.90;;;;;;5048192;28;20450;-63
2021/09/05 02:53:58;;;;;;;23.80;17.63;;;14.00;99.90;;;;;;5048944;28;20449;-64
2021/09/05 02:56:25;;;;;;;27.67;19.20;;;14.00;99.90;;;;;;5048899;28;20927;-64
2021/09/05 02:58:51;;;;;;;29.13;19.90;;;13.90;99.90;;;;;;5048600;28;20481;-63
2021/09/05 03:01:18;;;;;;;25.00;18.30;;;13.90;99.90;;;;;;5048295;28;20449;-62
2021/09/05 03:03:45;;;;;;;27.67;17.13;;;13.80;99.90;;;;;;5048286;28;20449;-64
2021/09/05 03:06:11;;;;;;;25.50;18.30;;;13.80;99.90;;;;;;5047754;28;20453;-62
2021/09/05 03:08:38;;;;;;;27.63;20.90;;;13.80;99.90;;;;;;5048246;28;20472;-63
2021/09/05 03:11:06;;;;;;;24.63;18.50;;;13.80;99.90;;;;;;5048029;28;20446;-64
2021/09/05 03:13:33;;;;;;;24.70;19.20;;;13.80;99.90;;;;;;5048667;28;20818;-63
2021/09/05 03:16:00;;;;;;;24.00;15.93;;;13.80;99.90;;;;;;5048098;28;20528;-61
2021/09/05 03:18:26;;;;;;;23.60;17.93;;;13.70;99.90;;;;;;5047788;28;20465;-64
2021/09/05 03:20:53;;;;;;;26.33;18.77;;;13.70;99.90;;;;;;5046731;28;20456;-62
2021/09/05 03:23:20;;;;;;;27.10;18.83;;;13.70;99.90;;;;;;5047029;28;20452;-62
2021/09/05 03:25:47;;;;;;;23.80;17.10;;;13.70;99.90;;;;;;5047717;28;20453;-62
2021/09/05 03:28:15;;;;;;;22.10;16.63;;;13.60;99.90;;;;;;5047866;28;20469;-64
2021/09/05 03:30:41;;;;;;;25.83;17.77;;;13.60;99.90;;;;;;5047021;28;20452;-65
2021/09/05 03:33:08;;;;;;;26.97;21.30;;;13.60;99.90;;;;;;5048033;28;20490;-64
2021/09/05 03:35:35;;;;;;;26.10;17.87;;;13.60;99.90;;;;;;5047801;28;20449;-62
2021/09/05 03:38:02;;;;;;;29.67;19.80;;;13.50;99.90;;;;;;5047974;28;20488;-63
2021/09/05 03:40:28;;;;;;;27.77;20.13;;;13.50;99.90;;;;;;5048341;28;20489;-63
2021/09/05 03:42:55;;;;;;;27.50;17.90;;;13.50;99.90;;;;;;5047250;28;20472;-64
2021/09/05 03:45:24;;;;;;;25.50;17.47;;;13.50;99.90;;;;;;5048013;28;20445;-63
2021/09/05 03:47:50;;;;;;;31.30;19.77;;;13.50;99.90;;;;;;5048554;28;20469;-65
2021/09/05 03:50:17;;;;;;;29.00;18.80;;;13.50;99.90;;;;;;5048532;28;20508;-62
2021/09/05 03:52:44;;;;;;;25.37;17.33;;;13.50;99.90;;;;;;5046428;28;20479;-62
2021/09/05 03:55:26;;;;;;;27.57;18.60;;;13.50;99.90;;;;;;5105689;27;20546;-64
2021/09/05 03:57:53;;;;;;;26.57;20.30;;;13.50;99.90;;;;;;5104486;28;20471;-64
2021/09/05 04:00:20;;;;;;;41.50;20.77;;;13.50;99.90;;;;;;5103249;28;20446;-62
2021/09/05 04:02:46;;;;;;;25.30;17.23;;;13.40;99.90;;;;;;5104262;28;20440;-63
2021/09/05 04:05:13;;;;;;;25.67;17.63;;;13.40;99.90;;;;;;5101619;28;20982;-64
2021/09/05 04:07:43;;;;;;;34.37;19.87;;;13.40;99.90;;;;;;5083358;28;20481;-63
2021/09/05 04:10:11;;;;;;;25.57;19.60;;;13.40;99.90;;;;;;5083416;28;20450;-62
2021/09/05 04:12:41;;;;;;;25.03;17.60;;;13.40;99.90;;;;;;5083048;28;20443;-63
2021/09/05 04:15:10;;;;;;;23.80;19.20;;;13.40;99.90;;;;;;5083705;28;20475;-64
2021/09/05 04:17:37;;;;;;;29.77;20.73;;;13.40;99.90;;;;;;5090648;28;20470;-63
2021/09/05 04:20:04;;;;;;;29.00;19.60;;;13.40;99.90;;;;;;5099881;28;20446;-64
2021/09/05 04:22:32;;;;;;;36.23;18.67;;;13.40;99.90;;;;;;5092795;28;20940;-64
2021/09/05 04:24:59;;;;;;;29.70;19.47;;;13.40;99.90;;;;;;5092128;28;20443;-62
2021/09/05 04:27:25;;;;;;;27.40;21.07;;;13.50;99.90;;;;;;5071523;28;20468;-65
2021/09/05 04:29:54;;;;;;;26.83;17.47;;;13.50;99.90;;;;;;5070740;28;20978;-64
2021/09/05 04:32:21;;;;;;;30.47;18.67;;;13.50;99.90;;;;;;5075191;28;20462;-63
2021/09/05 04:34:48;;;;;;;25.33;17.40;;;13.50;99.90;;;;;;5078494;28;20483;-64
2021/09/05 04:37:15;;;;;;;36.73;19.27;;;13.40;99.90;;;;;;5097636;28;20467;-64
2021/09/05 04:39:42;;;;;;;24.40;18.90;;;13.40;99.90;;;;;;5098758;28;20529;-63
2021/09/05 04:42:08;;;;;;;23.27;16.37;;;13.40;99.90;;;;;;5098825;28;20446;-64
2021/09/05 04:44:35;;;;;;;27.33;20.30;;;13.40;99.90;;;;;;5098614;28;20445;-63
2021/09/05 04:47:04;;;;;;;26.87;17.80;;;13.30;99.90;;;;;;5098326;28;20807;-64
2021/09/05 04:49:32;;;;;;;29.63;18.73;;;13.30;99.90;;;;;;5079336;28;20790;-64
2021/09/05 04:51:59;;;;;;;22.10;18.00;;;13.30;99.90;;;;;;5080438;28;20447;-64
2021/09/05 04:54:26;;;;;;;31.90;20.23;;;13.30;99.90;;;;;;5080361;28;20486;-63
2021/09/05 04:56:53;;;;;;;25.97;19.20;;;13.30;99.90;;;;;;5073089;28;20463;-65
2021/09/05 04:59:19;;;;;;;24.27;16.50;;;13.30;99.90;;;;;;5071145;28;20793;-66
2021/09/05 05:01:46;;;;;;;28.50;20.27;;;13.30;99.90;;;;;;5088350;28;20442;-64
2021/09/05 05:04:14;;;;;;;27.83;18.10;;;13.30;99.90;;;;;;5088400;28;20812;-64
2021/09/05 05:06:42;;;;;;;27.40;16.83;;;13.30;99.90;;;;;;5075049;28;20943;-66
2021/09/05 05:09:09;;;;;;;26.83;18.30;;;13.30;99.90;;;;;;5074669;28;20447;-64
2021/09/05 05:11:36;;;;;;;25.33;17.70;;;13.40;99.90;;;;;;5067569;28;20447;-64
2021/09/05 05:14:02;;;;;;;23.20;17.30;;;13.40;99.90;;;;;;5066080;28;20498;-63
2021/09/05 05:16:29;;;;;;;24.60;18.60;;;13.40;99.90;;;;;;5074003;28;20447;-65
2021/09/05 05:18:56;;;;;;;27.53;17.70;;;13.40;99.90;;;;;;5074214;28;20443;-64
2021/09/05 05:21:26;;;;;;;22.20;16.80;;;13.50;99.90;;;;;;5074144;28;20443;-65
2021/09/05 05:23:53;;;;;;;28.73;17.27;;;13.50;99.90;;;;;;5073538;28;20451;-64
2021/09/05 05:26:19;;;;;;;24.03;16.87;;;13.50;99.90;;;;;;5073935;28;20447;-64
2021/09/05 05:28:46;;;;;;;23.23;17.10;;;13.60;99.90;;;;;;5073839;28;20470;-64
2021/09/05 05:31:13;;;;;;;24.73;16.70;;;13.60;99.90;;;;;;5073879;28;20443;-65
2021/09/05 05:33:40;;;;;;;28.67;17.73;;;13.70;99.90;;;;;;5073852;28;20451;-64
2021/09/05 05:36:07;;;;;;;24.70;16.63;;;13.70;99.90;;;;;;5064983;28;20448;-64
2021/09/05 05:38:35;;;;;;;25.97;17.90;;;13.80;99.90;;;;;;5053870;28;20471;-65
2021/09/05 05:41:01;;;;;;;26.50;18.10;;;13.80;99.90;;;;;;5053762;28;20452;-65
2021/09/05 05:43:28;;;;;;;26.53;18.30;;;13.90;99.90;;;;;;5053703;28;20444;-65
2021/09/05 05:45:55;;;;;;;27.53;19.00;;;13.90;99.90;;;;;;5053750;28;20436;-65
2021/09/05 05:48:23;;;;;;;21.50;17.33;;;14.00;99.90;;;;;;5063389;28;20463;-64
2021/09/05 05:50:51;;;;;;;30.17;16.23;;;14.00;99.90;;;;;;5077499;28;20447;-64
2021/09/05 05:53:19;;;;;;;21.47;16.23;;;14.10;99.90;;;;;;5079624;28;20459;-64
2021/09/05 05:55:48;;;;;;;23.70;16.17;;;14.20;99.90;;;;;;5073498;28;20882;-64
2021/09/05 05:58:15;;;;;;;22.00;16.87;;;14.30;99.90;;;;;;5073819;28;20844;-64
2021/09/05 06:00:42;;;;;;;24.30;16.60;;;14.40;99.90;;;;;;5061486;28;20459;-64
2021/09/05 06:03:11;;;;;;;24.27;16.87;;;14.40;99.90;;;;;;5054034;28;20976;-65
2021/09/05 06:05:39;;;;;;;26.83;19.90;;;14.50;99.90;;;;;;5053602;28;20464;-65
2021/09/05 06:08:07;;;;;;;25.90;18.33;;;14.60;99.90;;;;;;5056957;28;20472;-66
2021/09/05 06:10:34;;;;;;;25.23;18.57;;;14.70;99.90;;;;;;5053474;28;20444;-65
2021/09/05 06:13:04;;;;;;;19.40;16.70;;;14.80;99.90;;;;;;5070569;28;20827;-66
2021/09/05 06:15:33;;;;;;;23.47;16.90;;;14.90;99.90;;;;;;5075321;28;20475;-64
2021/09/05 06:18:00;;;;;;;20.63;16.37;;;15.00;99.90;;;;;;5079901;28;20883;-65
2021/09/05 06:20:28;;;;;;;20.27;16.23;;;15.10;99.90;;;;;;5072991;28;20448;-66
2021/09/05 06:22:55;;;;;;;21.77;18.57;;;15.30;99.90;;;;;;5072505;28;20486;-64
2021/09/05 06:25:22;;;;;;;20.90;16.77;;;15.30;99.90;;;;;;5056850;28;20972;-64
2021/09/05 06:27:49;;;;;;;20.37;15.50;;;15.40;99.90;;;;;;5056602;28;20790;-64
2021/09/05 06:30:18;;;;;;;21.07;16.00;;;15.60;99.90;;;;;;5057996;28;20444;-64
2021/09/05 06:32:44;;;;;;;21.10;15.00;;;15.70;99.90;;;;;;5068880;28;20444;-63
2021/09/05 06:35:11;;;;;;;18.73;14.90;;;15.80;99.90;;;;;;5078093;28;20479;-63
2021/09/05 06:37:38;;;;;;;16.53;14.50;;;15.80;99.90;;;;;;5080924;28;20467;-63
2021/09/05 06:40:07;;;;;;;19.30;15.40;;;16.00;99.90;;;;;;5072872;28;20451;-64
2021/09/05 06:42:34;;;;;;;19.13;15.00;;;16.10;99.90;;;;;;5058340;28;20451;-66
2021/09/05 06:45:00;;;;;;;23.90;16.07;;;16.20;99.90;;;;;;5056336;28;20494;-65
2021/09/05 06:47:29;;;;;;;17.87;15.27;;;16.30;99.90;;;;;;5059074;28;20464;-64
2021/09/05 06:49:56;;;;;;;19.30;15.70;;;16.40;99.90;;;;;;5060975;28;20444;-65
2021/09/05 06:52:22;;;;;;;19.63;16.20;;;16.50;99.90;;;;;;5078390;28;20447;-65
2021/09/05 06:54:49;;;;;;;18.10;15.30;;;16.70;99.90;;;;;;5076998;28;20483;-64
2021/09/05 06:57:16;;;;;;;17.37;14.67;;;16.80;99.90;;;;;;5077017;28;20470;-65
2021/09/05 06:59:42;;;;;;;17.10;14.17;;;16.90;99.90;;;;;;5075665;28;20444;-65
2021/09/05 07:02:09;;;;;;;22.33;18.20;;;17.00;99.90;;;;;;5071117;28;20972;-63
2021/09/05 07:04:37;;;;;;;17.73;15.93;;;17.10;99.90;;;;;;5053261;28;20440;-65
2021/09/05 07:07:04;;;;;;;20.43;16.63;;;17.20;99.90;;;;;;5054699;28;20460;-64
2021/09/05 07:09:31;;;;;;;16.47;14.73;;;17.30;99.90;;;;;;5054080;28;20811;-63
2021/09/05 07:11:58;;;;;;;19.13;16.33;;;17.40;99.90;;;;;;5053868;28;20444;-65
2021/09/05 07:14:25;;;;;;;17.97;16.00;;;17.50;99.90;;;;;;5055945;28;20474;-65
2021/09/05 07:16:51;;;;;;;16.23;14.73;;;17.60;99.90;;;;;;5053878;28;20468;-66
2021/09/05 07:19:18;;;;;;;16.07;14.70;;;17.70;99.90;;;;;;5052904;28;20459;-64
2021/09/05 07:21:46;;;;;;;17.03;15.33;;;17.90;99.90;;;;;;5052275;28;20977;-65
2021/09/05 07:24:13;;;;;;;16.77;15.17;;;18.00;99.90;;;;;;5052799;28;20478;-66
2021/09/05 07:26:42;;;;;;;15.97;14.57;;;18.10;99.90;;;;;;5056859;28;20816;-64
2021/09/05 07:29:09;;;;;;;17.70;15.93;;;18.20;99.90;;;;;;5072269;28;20458;-64
2021/09/05 07:31:36;;;;;;;19.00;17.20;;;18.40;99.90;;;;;;5072980;28;20457;-66
2021/09/05 07:34:02;;;;;;;19.27;16.97;;;18.50;99.90;;;;;;5072682;28;20447;-64
2021/09/05 07:36:29;;;;;;;18.03;16.20;;;18.50;99.90;;;;;;5073898;28;21143;-64
2021/09/05 07:38:57;;;;;;;17.77;16.20;;;18.60;99.90;;;;;;5065708;28;20449;-64
2021/09/05 07:41:24;;;;;;;18.67;16.97;;;18.70;99.90;;;;;;5053706;28;20440;-64
2021/09/05 07:43:51;;;;;;;17.97;16.37;;;18.80;99.90;;;;;;5053774;28;20448;-63
2021/09/05 07:46:17;;;;;;;18.40;17.00;;;18.90;99.90;;;;;;5053495;28;20432;-64
2021/09/05 07:48:44;;;;;;;19.53;17.13;;;19.00;99.90;;;;;;5053502;28;20467;-64
2021/09/05 07:51:11;;;;;;;17.37;15.67;;;19.10;99.90;;;;;;5053643;28;20925;-63
2021/09/05 07:53:38;;;;;;;18.50;17.00;;;19.20;99.90;;;;;;5052951;28;20463;-64
2021/09/05 07:56:06;;;;;;;18.70;17.10;;;19.30;99.90;;;;;;5051398;28;20484;-63
2021/09/05 07:58:33;;;;;;;18.60;17.10;;;19.40;99.90;;;;;;5069974;28;20820;-64
2021/09/05 08:00:59;;;;;;;18.87;17.40;;;19.50;99.90;;;;;;5071592;28;20900;-62
2021/09/05 08:03:26;;;;;;;20.73;19.13;;;19.60;99.90;;;;;;5072236;28;20812;-63
2021/09/05 08:05:53;;;;;;;19.90;18.30;;;19.70;99.90;;;;;;5076438;28;20439;-62
2021/09/05 08:08:19;;;;;;;20.27;18.73;;;19.80;99.90;;;;;;5057609;28;20472;-62
2021/09/05 08:10:46;;;;;;;20.20;18.57;;;19.90;99.90;;;;;;5051602;28;20459;-63
2021/09/05 08:13:14;;;;;;;18.43;16.97;;;19.90;99.90;;;;;;5051484;28;20447;-63
2021/09/05 08:15:41;;;;;;;19.93;18.43;;;20.00;99.90;;;;;;5050983;28;20479;-63
2021/09/05 08:18:08;;;;;;;19.93;18.23;;;20.10;99.90;;;;;;5057368;28;20468;-64
2021/09/05 08:20:35;;;;;;;21.80;20.20;;;20.20;99.90;;;;;;5071070;28;20789;-64
2021/09/05 08:23:01;;;;;;;22.67;20.87;;;20.30;99.90;;;;;;5071103;28;20447;-64
2021/09/05 08:25:28;;;;;;;22.63;20.70;;;20.40;99.90;;;;;;5071501;28;20446;-65
2021/09/05 08:27:55;;;;;;;23.27;21.30;;;20.60;99.90;;;;;;5071371;28;20474;-64
2021/09/05 08:30:23;;;;;;;23.00;20.87;;;20.70;99.90;;;;;;5071139;28;20445;-66
2021/09/05 08:32:50;;;;;;;21.13;19.63;;;20.80;99.90;;;;;;5051895;28;20451;-65
2021/09/05 08:35:17;;;;;;;19.43;17.90;;;20.80;99.90;;;;;;5050952;28;20520;-66
2021/09/05 08:37:43;;;;;;;23.30;21.40;;;20.90;99.90;;;;;;5051123;28;20463;-64
2021/09/05 08:40:11;;;;;;;21.47;19.70;;;21.00;99.90;;;;;;5051559;28;20844;-66
2021/09/05 08:42:37;;;;;;;21.80;20.20;;;21.10;99.90;;;;;;5055979;28;20440;-64
2021/09/05 08:45:06;;;;;;;22.00;20.30;;;21.20;99.90;;;;;;5074864;28;20470;-64
2021/09/05 08:47:35;;;;;;;21.80;20.10;;;21.40;99.90;;;;;;5074790;28;20847;-67
2021/09/05 08:50:05;;;;;;;20.83;19.23;;;21.50;99.90;;;;;;5074874;28;20833;-64
2021/09/05 08:52:32;;;;;;;22.30;20.33;;;21.60;99.90;;;;;;5059978;28;20474;-65
2021/09/05 08:54:59;;;;;;;21.67;20.00;;;21.50;99.90;;;;;;5054643;28;20486;-65
2021/09/05 08:57:25;;;;;;;21.63;20.13;;;21.70;99.90;;;;;;5054636;28;21181;-66
2021/09/05 08:59:52;;;;;;;21.93;20.33;;;21.80;99.90;;;;;;5054749;28;20447;-65
2021/09/05 09:02:19;;;;;;;22.67;20.93;;;21.90;99.90;;;;;;5066416;28;20516;-66
2021/09/05 09:04:50;;;;;;;24.47;22.67;;;22.10;99.90;;;;;;5074505;28;20450;-65
2021/09/05 09:07:17;;;;;;;23.10;21.50;;;22.10;99.90;;;;;;5074394;28;20506;-64
2021/09/05 09:09:58;;;;;;;22.33;20.67;;;22.20;99.90;;;;;;5074688;28;20435;-66
2021/09/05 09:12:40;;;;;;;22.33;20.63;;;22.30;99.90;;;;;;5074294;28;20512;-66
2021/09/05 09:15:20;;;;;;;22.60;20.90;;;22.50;99.90;;;;;;5053432;28;21008;-66
2021/09/05 09:17:51;;;;;;;23.80;21.97;;;22.60;99.90;;;;;;5054423;28;20464;-66
2021/09/05 09:20:32;;;;;;;25.33;23.07;;;22.70;99.90;;;;;;5054451;28;20467;-67
2021/09/05 09:23:11;;;;;;;26.40;24.60;;;22.70;99.90;;;;;;5054714;28;20867;-64
2021/09/05 09:25:38;;;;;;;25.50;23.30;;;22.80;99.90;;;;;;5054185;28;20957;-65
2021/09/05 09:28:27;;;;;;;25.20;23.57;;;22.80;99.90;;;;;;5054435;28;20471;-66
2021/09/05 09:30:55;;;;;;;23.87;22.23;;;22.80;99.90;;;;;;5054239;28;20467;-65
2021/09/05 09:33:23;;;;;;;21.83;20.13;;;22.80;99.90;;;;;;5054843;28;20448;-64
2021/09/05 09:35:52;;;;;;;23.20;21.60;;;22.70;99.90;;;;;;5056159;28;20487;-65
2021/09/05 09:38:20;;;;;;;23.67;21.97;;;22.70;99.90;;;;;;5055853;28;20475;-64
2021/09/05 09:40:48;;;;;;;24.97;22.90;;;22.90;99.90;;;;;;5054754;28;20810;-65
2021/09/05 09:43:22;;;;;;;22.53;21.13;;;23.10;99.90;;;;;;5053619;28;20444;-64
2021/09/05 09:45:50;;;;;;;22.53;20.97;;;23.10;99.90;;;;;;5056495;28;20444;-64
2021/09/05 09:48:23;;;;;;;22.93;21.33;;;23.20;99.90;;;;;;5054453;28;20464;-65
2021/09/05 09:50:59;;;;;;;24.60;23.00;;;23.30;99.90;;;;;;5055299;28;20476;-65
2021/09/05 09:53:27;;;;;;;24.07;22.43;;;23.40;99.90;;;;;;5057880;28;20517;-65
2021/09/05 09:55:55;;;;;;;23.73;22.03;;;23.40;99.90;;;;;;5053678;28;20488;-65
2021/09/05 09:58:22;;;;;;;23.23;21.73;;;23.60;99.90;;;;;;5060738;28;20472;-63
2021/09/05 10:00:49;;;;;;;24.40;22.70;;;23.80;99.90;;;;;;5062275;28;20452;-63
2021/09/05 10:03:16;;;;;;;23.50;22.00;;;23.90;99.90;;;;;;5057329;28;20455;-65
2021/09/05 10:05:44;;;;;;;22.43;20.93;;;24.10;99.90;;;;;;5053704;28;20444;-63
2021/09/05 10:08:12;;;;;;;22.40;20.90;;;24.10;99.90;;;;;;5082869;22;20492;-63
2021/09/05 10:10:40;;;;;;;22.90;21.60;;;24.30;99.90;;;;;;5043383;28;20453;-65
2021/09/05 10:13:08;;;;;;;23.77;22.17;;;24.40;99.90;;;;;;5036055;28;20502;-65
2021/09/05 10:15:35;;;;;;;24.53;22.90;;;24.40;99.90;;;;;;5034293;28;20538;-63
2021/09/05 10:18:02;;;;;;;24.23;22.70;;;24.50;99.90;;;;;;5033318;28;20488;-64
2021/09/05 10:20:29;;;;;;;24.20;22.53;;;24.60;99.90;;;;;;5033492;28;20445;-64
2021/09/05 10:22:56;;;;;;;25.10;23.50;;;24.90;99.90;;;;;;5033550;28;20461;-63
2021/09/05 10:25:24;;;;;;;23.73;22.23;;;24.80;99.90;;;;;;5033377;28;20444;-64
2021/09/05 10:27:51;;;;;;;24.30;22.73;;;24.90;99.90;;;;;;5033464;28;20462;-64
2021/09/05 10:30:22;;;;;;;26.27;24.53;;;25.00;99.90;;;;;;5033097;28;20445;-64
2021/09/05 10:32:52;;;;;;;25.33;23.53;;;25.00;99.90;;;;;;5033888;28;20445;-64
2021/09/05 10:35:39;;;;;;;25.30;23.70;;;25.20;99.50;;;;;;5033961;28;20479;-64
2021/09/05 10:38:33;;;;;;;26.30;24.50;;;25.10;99.70;;;;;;5032471;28;20497;-63
2021/09/05 10:41:03;;;;;;;22.97;21.57;;;25.20;99.90;;;;;;4997472;28;20459;-62
2021/09/05 10:43:53;;;;;;;24.90;23.30;;;25.30;99.90;;;;;;5032636;28;20457;-64
2021/09/05 10:46:21;;;;;;;26.47;24.57;;;25.30;99.80;;;;;;5032703;28;20448;-65
2021/09/05 10:48:50;;;;;;;23.73;22.13;;;25.30;99.70;;;;;;5032610;28;20489;-65
2021/09/05 10:51:19;;;;;;;26.67;24.77;;;25.50;99.90;;;;;;5031982;28;20479;-65
2021/09/05 10:53:51;;;;;;;25.00;23.50;;;25.70;99.90;;;;;;5033087;28;20451;-66
2021/09/05 10:56:21;;;;;;;27.40;25.40;;;25.80;99.60;;;;;;5032525;28;20527;-63
2021/09/05 10:58:52;;;;;;;25.30;23.73;;;26.00;98.80;;;;;;5032804;28;20536;-65
2021/09/05 11:01:27;;;;;;;22.43;21.23;;;26.10;99.20;;;;;;5032830;28;20445;-63
2021/09/05 11:04:24;;;;;;;26.20;24.40;;;26.50;98.20;;;;;;5032103;28;20448;-64
2021/09/05 11:06:51;;;;;;;25.60;24.10;;;26.90;97.40;;;;;;5032079;28;20861;-65
2021/09/05 11:09:41;;;;;;;26.27;24.47;;;27.40;95.30;;;;;;5032771;28;20946;-64
2021/09/05 11:12:14;;;;;;;25.47;23.87;;;27.70;91.40;;;;;;5032911;28;20449;-64
2021/09/05 11:15:07;;;;;;;25.33;23.83;;;28.00;91.70;;;;;;5033575;28;20535;-64
2021/09/05 11:17:34;;;;;;;24.87;23.47;;;28.40;86.40;;;;;;5034614;28;20480;-63
2021/09/05 11:20:05;;;;;;;26.67;25.10;;;28.90;84.00;;;;;;5033028;28;20448;-64
2021/09/05 11:22:33;;;;;;;25.87;24.20;;;29.50;77.90;;;;;;5032923;28;20452;-65
2021/09/05 11:25:15;;;;;;;26.07;24.60;;;30.40;75.00;;;;;;5032868;28;20934;-62
2021/09/05 11:27:50;;;;;;;26.80;25.20;;;32.00;66.10;;;;;;5032421;28;20499;-64
2021/09/05 11:30:18;;;;;;;26.70;25.30;;;33.30;58.90;;;;;;5032157;28;20209;-65
2021/09/05 11:32:44;;;;;;;28.63;27.13;;;33.20;54.40;;;;;;5031668;28;20198;-64
2021/09/05 11:35:13;;;;;;;27.08;25.55;;;34.40;53.00;;;;;;5031953;28;20221;-65
2021/09/05 11:37:42;;;;;;;27.75;26.25;;;36.00;50.60;;;;;;5033736;28;20233;-64
2021/09/05 11:40:10;;;;;;;26.45;25.20;;;37.20;47.00;;;;;;5034430;28;20209;-62
2021/09/05 11:42:38;;;;;;;27.38;26.05;;;39.10;43.50;;;;;;5035202;28;20202;-63
2021/09/05 11:45:09;;;;;;;26.40;25.08;;;38.40;40.70;;;;;;5034202;28;20194;-64
2021/09/05 11:47:36;;;;;;;27.30;25.90;;;38.50;40.80;;;;;;5034858;28;20285;-65
2021/09/05 11:50:04;;;;;;;26.83;25.33;;;39.40;38.80;;;;;;5036513;28;20202;-62
2021/09/05 11:52:33;;;;;;;27.35;25.92;;;40.80;37.40;;;;;;5037879;28;20208;-64
2021/09/05 11:55:01;;;;;;;26.23;24.98;;;41.70;36.00;;;;;;5038405;28;20204;-63
2021/09/05 11:57:28;;;;;;;26.92;25.70;;;42.70;33.80;;;;;;5039240;28;20248;-65
2021/09/05 11:59:55;;;;;;;25.88;24.55;;;43.30;32.80;;;;;;5037916;28;20701;-64
2021/09/05 12:02:32;;;;;;;27.40;26.10;;;43.90;31.80;;;;;;5035953;28;20205;-64
2021/09/05 12:04:59;;;;;;;24.70;23.52;;;44.40;30.40;;;;;;5034381;28;20197;-64
2021/09/05 12:07:29;;;;;;;26.92;25.63;;;45.60;29.90;;;;;;5034272;28;20234;-63
2021/09/05 12:10:07;;;;;;;25.55;24.35;;;45.70;28.70;;;;;;5034932;28;20574;-65
2021/09/05 12:12:34;;;;;;;26.80;25.50;;;45.50;28.40;;;;;;5034350;28;20205;-63
2021/09/05 12:15:14;;;;;;;25.90;24.70;;;46.40;28.50;;;;;;5035380;28;20208;-61
2021/09/05 12:17:46;;;;;;;24.92;23.90;;;48.00;27.40;;;;;;5039736;28;20229;-62
2021/09/05 12:20:13;;;;;;;25.67;24.42;;;49.50;26.50;;;;;;5041407;28;20206;-62
2021/09/05 12:22:48;;;;;;;26.85;25.45;;;50.30;25.60;;;;;;5040513;28;20201;-62
2021/09/05 12:25:19;;;;;;;27.83;26.52;;;50.80;24.70;;;;;;5041093;28;20748;-61
2021/09/05 12:28:00;;;;;;;24.60;23.50;;;51.60;24.60;;;;;;5039575;28;20567;-61
2021/09/05 12:30:29;;;;;;;25.65;24.45;;;52.00;24.10;;;;;;5019275;28;20710;-60
2021/09/05 12:33:16;;;;;;;26.83;25.52;;;52.20;23.70;;;;;;5019640;28;20206;-62
2021/09/05 12:35:44;;;;;;;26.77;25.58;;;51.80;23.60;;;;;;5017471;28;20224;-62